Terminal Aerodrome Forecast
Issued by NWS Mobile, AL

Home | Current Version | Previous Version | Text Only | Print | Product List | Glossary On
Versions: 1 2 3 4 5 6 7 8 9 10 11 12 13 14 15 16 17 18 19 20 21 22 23 24 25 26 27 28 29 30 31 32 33 34
000
FTUS44 KMOB 011400 AAA
TAFPNS
TAF AMD
KPNS 011407Z 0114/0212 08007KT 1/2SM FG OVC002
     FM011700 12008KT 6SM BR VCSH OVC010
     FM020100 07006KT 4SM BR OVC007
      TEMPO 0208/0212 1/2SM FG VV002=

USA.gov is the U.S. government's official web portal to all federal, state and local government web resources and services.